Time;durP1;ratioP1;P1;durP2;ratioP2;P2;SDS_P1;SDS_P2;PMS_P1;PMS_P2;Temp;Humidity;BMP_temperature;BMP_pressure;BME280_temperature;BME280_humidity;BME280_pressure;Samples;Min_cycle;Max_cycle;Signal;HPM_P1;HPM_P2
2023/05/29 00:00:17;;;;;;;17.90;3.22;;;9.10;99.90;;;;;;4979976;28;20065;-83
2023/05/29 00:02:44;;;;;;;14.40;3.97;;;9.10;99.90;;;;;;4977619;28;20046;-83
2023/05/29 00:05:18;;;;;;;10.95;3.13;;;9.00;99.90;;;;;;4940848;28;20039;-83
2023/05/29 00:07:44;;;;;;;19.50;4.47;;;9.00;99.90;;;;;;4967854;28;20088;-83
2023/05/29 00:10:11;;;;;;;12.27;3.05;;;9.10;99.90;;;;;;4961225;28;20058;-83
2023/05/29 00:12:37;;;;;;;15.70;3.58;;;9.00;99.90;;;;;;4978073;28;20138;-83
2023/05/29 00:15:04;;;;;;;13.15;3.80;;;8.90;99.90;;;;;;4977099;28;20043;-83
2023/05/29 00:17:33;;;;;;;16.98;3.45;;;8.90;99.90;;;;;;4954675;28;20046;-82
2023/05/29 00:20:01;;;;;;;15.77;3.15;;;8.80;99.90;;;;;;4939379;28;20049;-83
2023/05/29 00:22:27;;;;;;;14.90;3.35;;;8.80;99.90;;;;;;4970692;28;20039;-83
2023/05/29 00:24:52;;;;;;;19.63;3.70;;;8.70;99.90;;;;;;4939940;28;20092;-83
2023/05/29 00:27:18;;;;;;;18.33;3.78;;;8.70;99.90;;;;;;4956312;28;20042;-83
2023/05/29 00:29:47;;;;;;;13.20;3.60;;;8.60;99.90;;;;;;4962360;28;20045;-83
2023/05/29 00:32:13;;;;;;;18.27;3.20;;;8.60;99.90;;;;;;4974446;28;20038;-82
2023/05/29 00:34:39;;;;;;;15.13;3.03;;;8.60;99.90;;;;;;4955776;28;20039;-82
2023/05/29 00:37:05;;;;;;;15.10;3.20;;;8.60;99.90;;;;;;4953978;28;20430;-83
2023/05/29 00:39:31;;;;;;;11.38;2.80;;;8.60;99.90;;;;;;4953778;28;20034;-83
2023/05/29 00:41:56;;;;;;;18.83;3.60;;;8.60;99.90;;;;;;4956971;28;20045;-83
2023/05/29 00:44:22;;;;;;;12.50;3.40;;;8.50;99.90;;;;;;4954198;28;20269;-83
2023/05/29 00:46:52;;;;;;;13.60;3.05;;;8.50;99.90;;;;;;4954035;28;20034;-83
2023/05/29 00:49:18;;;;;;;16.67;3.20;;;8.50;99.90;;;;;;4961373;28;20068;-83
2023/05/29 00:51:44;;;;;;;20.60;3.45;;;8.40;99.90;;;;;;4959111;28;20042;-83
2023/05/29 00:54:14;;;;;;;12.90;3.00;;;8.40;99.90;;;;;;4940391;28;20508;-83
2023/05/29 00:56:43;;;;;;;15.18;3.78;;;8.30;99.90;;;;;;4975944;28;20124;-83
2023/05/29 00:59:10;;;;;;;18.15;3.42;;;8.20;99.90;;;;;;4958517;28;20210;-83
2023/05/29 01:01:36;;;;;;;16.38;3.20;;;8.20;99.90;;;;;;4944306;28;20057;-83
2023/05/29 01:04:06;;;;;;;18.15;3.22;;;8.20;99.90;;;;;;4939537;28;20090;-84
2023/05/29 01:06:35;;;;;;;15.52;3.72;;;8.20;99.90;;;;;;4960451;28;20176;-83
2023/05/29 01:09:00;;;;;;;15.13;3.65;;;8.10;99.90;;;;;;4958229;28;20491;-83
2023/05/29 01:11:46;;;;;;;16.13;3.53;;;8.20;99.90;;;;;;4961026;28;20054;-83
2023/05/29 01:14:23;;;;;;;12.27;3.28;;;8.20;99.90;;;;;;4963432;28;20185;-83
2023/05/29 01:17:03;;;;;;;16.70;3.72;;;8.10;99.90;;;;;;4979851;28;20058;-83
2023/05/29 01:20:13;;;;;;;18.20;3.83;;;8.10;99.90;;;;;;4938700;28;20042;-84
2023/05/29 01:23:13;;;;;;;14.50;3.65;;;8.20;99.90;;;;;;4957504;28;20796;-84
2023/05/29 01:26:04;;;;;;;20.40;4.22;;;8.20;99.90;;;;;;4961631;28;20046;-83
2023/05/29 01:28:46;;;;;;;19.08;3.42;;;8.30;99.90;;;;;;4982059;28;20042;-83
2023/05/29 01:31:14;;;;;;;18.63;3.53;;;8.50;99.90;;;;;;4965925;28;20078;-84
2023/05/29 01:33:42;;;;;;;15.98;3.85;;;8.50;99.90;;;;;;4944964;28;20053;-83
2023/05/29 01:36:09;;;;;;;19.00;3.05;;;8.40;99.90;;;;;;4974995;28;20034;-84
2023/05/29 01:38:35;;;;;;;14.40;3.30;;;8.40;99.90;;;;;;4978696;28;20202;-84
2023/05/29 01:41:02;;;;;;;14.02;4.10;;;8.40;99.90;;;;;;4958071;28;20579;-83
2023/05/29 01:43:29;;;;;;;19.40;4.30;;;8.40;99.90;;;;;;4979504;28;20373;-85
2023/05/29 01:45:55;;;;;;;12.65;4.00;;;8.30;99.90;;;;;;4960824;28;20038;-83
2023/05/29 01:48:22;;;;;;;17.67;3.15;;;8.30;99.90;;;;;;4958433;28;20393;-84
2023/05/29 01:50:49;;;;;;;15.25;3.70;;;8.30;99.90;;;;;;4976966;28;20046;-83
2023/05/29 01:53:16;;;;;;;16.25;3.40;;;8.30;99.90;;;;;;4960097;28;20461;-83
2023/05/29 01:55:42;;;;;;;13.27;3.80;;;8.30;99.90;;;;;;4958560;28;20053;-84
2023/05/29 01:58:08;;;;;;;14.57;3.20;;;8.30;99.90;;;;;;4981184;28;20242;-83
2023/05/29 02:00:34;;;;;;;18.00;3.40;;;8.40;99.90;;;;;;4939554;28;20050;-84
2023/05/29 02:03:00;;;;;;;21.50;3.95;;;8.40;99.90;;;;;;4961136;28;20521;-84
2023/05/29 02:05:26;;;;;;;18.17;3.70;;;8.30;99.90;;;;;;4946044;28;20031;-83
2023/05/29 02:07:51;;;;;;;15.77;3.58;;;8.30;99.90;;;;;;4960028;28;20465;-84
2023/05/29 02:10:17;;;;;;;13.57;3.65;;;8.30;99.90;;;;;;4957086;28;20148;-83
2023/05/29 02:12:43;;;;;;;17.50;4.10;;;8.40;99.90;;;;;;4986471;28;20076;-83
2023/05/29 02:15:09;;;;;;;15.80;3.30;;;8.40;99.90;;;;;;4998697;28;20107;-83
2023/05/29 02:17:34;;;;;;;17.90;3.85;;;8.40;99.90;;;;;;4997496;28;20037;-83
2023/05/29 02:20:01;;;;;;;17.83;3.92;;;8.40;99.90;;;;;;4994195;28;20042;-83
2023/05/29 02:22:27;;;;;;;14.43;3.78;;;8.40;99.90;;;;;;4980176;28;20068;-83
2023/05/29 02:24:53;;;;;;;10.25;3.60;;;8.40;99.90;;;;;;4977992;28;20493;-83
2023/05/29 02:27:18;;;;;;;15.38;3.67;;;8.30;99.90;;;;;;4994770;28;20175;-83
2023/05/29 02:29:46;;;;;;;17.88;3.90;;;8.30;99.90;;;;;;4997902;28;20049;-83
2023/05/29 02:32:12;;;;;;;13.88;3.13;;;8.20;99.90;;;;;;4994017;28;20072;-83
2023/05/29 02:34:38;;;;;;;18.55;3.65;;;8.20;99.90;;;;;;4991832;28;20476;-83
2023/05/29 02:37:03;;;;;;;15.95;3.55;;;8.20;99.90;;;;;;4993949;28;20049;-83
2023/05/29 02:39:29;;;;;;;21.23;4.10;;;8.20;99.90;;;;;;5012247;28;20034;-84
2023/05/29 02:41:57;;;;;;;17.13;3.67;;;8.20;99.90;;;;;;4992273;28;20046;-83
2023/05/29 02:44:22;;;;;;;16.15;3.22;;;8.20;99.90;;;;;;4998968;28;20490;-83
2023/05/29 02:46:49;;;;;;;14.57;3.53;;;8.10;99.90;;;;;;4978567;28;20041;-83
2023/05/29 02:49:14;;;;;;;13.25;3.53;;;8.10;99.90;;;;;;5011915;28;20073;-83
2023/05/29 02:51:40;;;;;;;16.45;3.50;;;8.10;99.90;;;;;;4994750;28;20631;-83
2023/05/29 02:54:05;;;;;;;15.48;3.60;;;8.10;99.90;;;;;;4990540;28;20037;-83
2023/05/29 02:56:31;;;;;;;15.40;3.30;;;8.10;99.90;;;;;;4990267;28;20042;-84
2023/05/29 02:58:57;;;;;;;16.60;3.30;;;8.00;99.90;;;;;;4997130;28;20263;-84
2023/05/29 03:01:22;;;;;;;21.02;4.50;;;8.00;99.90;;;;;;4993388;28;20060;-83
2023/05/29 03:03:48;;;;;;;15.65;3.60;;;8.00;99.90;;;;;;5012769;28;20075;-83
2023/05/29 03:06:16;;;;;;;15.10;3.33;;;8.00;99.90;;;;;;4996540;28;20069;-84
2023/05/29 03:08:44;;;;;;;13.73;2.97;;;7.90;99.90;;;;;;4995088;28;20544;-83
2023/05/29 03:11:15;;;;;;;15.73;2.85;;;7.90;99.90;;;;;;4994223;28;20049;-84
2023/05/29 03:13:40;;;;;;;14.25;3.85;;;7.70;99.90;;;;;;4977709;28;20247;-84
2023/05/29 03:16:07;;;;;;;14.52;2.90;;;7.70;99.90;;;;;;4997845;28;20193;-83
2023/05/29 03:18:34;;;;;;;21.02;3.53;;;7.70;99.90;;;;;;4989880;28;20149;-84
2023/05/29 03:21:00;;;;;;;11.52;2.60;;;7.60;99.90;;;;;;5010454;28;20038;-83
2023/05/29 03:23:26;;;;;;;21.98;3.83;;;7.60;99.90;;;;;;4993846;28;20045;-83
2023/05/29 03:25:51;;;;;;;15.32;3.20;;;7.60;99.90;;;;;;4979275;28;20037;-84
2023/05/29 03:28:17;;;;;;;13.25;3.30;;;7.50;99.90;;;;;;4996420;28;20306;-84
2023/05/29 03:30:42;;;;;;;17.85;2.90;;;7.50;99.90;;;;;;4998375;28;20552;-83
2023/05/29 03:33:08;;;;;;;13.73;3.03;;;7.60;99.90;;;;;;4979588;28;20038;-84
2023/05/29 03:35:34;;;;;;;13.32;3.38;;;7.60;99.90;;;;;;4988297;28;20060;-84
2023/05/29 03:37:59;;;;;;;10.55;2.90;;;7.70;99.90;;;;;;5012451;28;20137;-84
2023/05/29 03:40:25;;;;;;;15.07;3.42;;;7.70;99.90;;;;;;4994907;28;20122;-84
2023/05/29 03:42:51;;;;;;;15.07;3.47;;;7.80;99.90;;;;;;4980417;28;20060;-84
2023/05/29 03:45:17;;;;;;;14.10;3.10;;;7.80;99.90;;;;;;5013321;28;20182;-84
2023/05/29 03:47:42;;;;;;;12.32;4.00;;;7.80;99.90;;;;;;4995916;28;20443;-84
2023/05/29 03:50:08;;;;;;;13.48;3.28;;;7.90;99.90;;;;;;4990953;28;20038;-84
2023/05/29 03:52:34;;;;;;;16.52;4.25;;;8.10;99.90;;;;;;4990595;28;20518;-84
2023/05/29 03:55:00;;;;;;;13.18;3.22;;;8.20;99.90;;;;;;4997917;28;20045;-84
2023/05/29 03:57:26;;;;;;;16.13;3.47;;;8.40;99.90;;;;;;4980077;28;20042;-84
2023/05/29 03:59:52;;;;;;;11.95;3.58;;;8.40;99.90;;;;;;5010296;28;20042;-85
2023/05/29 04:02:18;;;;;;;10.65;3.22;;;8.40;99.90;;;;;;4980795;28;20462;-84
2023/05/29 04:04:43;;;;;;;11.68;3.47;;;8.50;99.90;;;;;;4977762;28;20045;-84
2023/05/29 04:07:09;;;;;;;17.00;3.42;;;8.40;99.90;;;;;;4989591;28;20034;-84
2023/05/29 04:09:35;;;;;;;12.25;3.42;;;8.50;99.90;;;;;;5003616;28;20038;-84
2023/05/29 04:12:05;;;;;;;14.75;3.15;;;8.60;99.90;;;;;;4987932;28;20042;-84
2023/05/29 04:14:31;;;;;;;15.98;3.13;;;8.60;99.90;;;;;;4962107;28;20046;-83
2023/05/29 04:17:00;;;;;;;14.50;3.85;;;8.70;99.90;;;;;;4961338;28;20143;-84
2023/05/29 04:19:25;;;;;;;15.65;3.25;;;8.70;99.90;;;;;;4954203;28;20050;-84
2023/05/29 04:21:51;;;;;;;9.27;2.97;;;8.70;99.90;;;;;;4972445;28;20049;-84
2023/05/29 04:24:17;;;;;;;12.85;3.20;;;8.70;99.90;;;;;;4954408;28;20038;-83
2023/05/29 04:26:43;;;;;;;14.15;3.40;;;8.70;99.90;;;;;;4971217;28;20049;-84
2023/05/29 04:29:08;;;;;;;15.02;3.45;;;8.80;99.90;;;;;;4957981;28;20034;-83
2023/05/29 04:31:36;;;;;;;13.10;2.83;;;8.90;99.90;;;;;;4961558;28;20092;-83
2023/05/29 04:34:04;;;;;;;15.25;3.25;;;8.90;99.90;;;;;;4955848;28;20053;-84
2023/05/29 04:36:32;;;;;;;15.38;3.30;;;9.00;99.90;;;;;;4968709;28;20043;-84
2023/05/29 04:38:58;;;;;;;12.75;3.50;;;9.20;99.90;;;;;;4952867;28;20069;-83
2023/05/29 04:41:29;;;;;;;12.38;4.45;;;9.20;99.90;;;;;;4961612;28;20057;-84
2023/05/29 04:43:58;;;;;;;14.48;2.80;;;9.30;99.90;;;;;;4942711;28;20458;-84
2023/05/29 04:46:24;;;;;;;11.52;2.60;;;9.50;99.90;;;;;;4937223;28;20038;-83
2023/05/29 04:48:53;;;;;;;15.27;3.40;;;9.60;99.90;;;;;;4944948;28;20524;-84
2023/05/29 04:51:22;;;;;;;16.02;3.95;;;9.60;99.90;;;;;;4950918;28;20560;-83
2023/05/29 04:53:51;;;;;;;14.05;3.50;;;9.70;99.90;;;;;;4971841;28;20382;-84
2023/05/29 04:56:18;;;;;;;16.48;3.17;;;9.80;99.90;;;;;;4961870;28;20050;-84
2023/05/29 04:58:43;;;;;;;14.98;3.30;;;9.90;99.90;;;;;;4955832;28;20691;-84
2023/05/29 05:01:14;;;;;;;15.90;2.97;;;9.90;99.90;;;;;;4959721;28;20045;-84
2023/05/29 05:03:40;;;;;;;13.23;3.00;;;9.90;99.90;;;;;;4958730;28;20035;-84
2023/05/29 05:06:07;;;;;;;9.23;2.92;;;10.10;99.90;;;;;;4956587;28;20461;-83
2023/05/29 05:08:36;;;;;;;17.33;3.30;;;10.10;99.90;;;;;;4932334;28;20469;-83
2023/05/29 05:11:02;;;;;;;14.55;3.45;;;10.20;99.90;;;;;;4956361;28;20112;-83
2023/05/29 05:13:28;;;;;;;15.20;3.20;;;10.30;99.90;;;;;;4978015;28;20061;-83
2023/05/29 05:15:54;;;;;;;12.73;3.40;;;10.30;99.90;;;;;;4975000;28;20446;-83
2023/05/29 05:18:20;;;;;;;14.02;3.42;;;10.40;99.90;;;;;;4949282;28;20054;-83
2023/05/29 05:20:46;;;;;;;14.90;4.13;;;10.60;99.90;;;;;;4952551;28;20389;-84
2023/05/29 05:23:11;;;;;;;15.02;3.20;;;10.80;99.90;;;;;;4969126;28;20581;-83
2023/05/29 05:25:38;;;;;;;17.15;3.83;;;10.90;99.90;;;;;;4954837;28;20254;-83
2023/05/29 05:28:05;;;;;;;11.90;3.85;;;11.00;99.90;;;;;;4943176;28;20133;-83
2023/05/29 05:30:31;;;;;;;17.25;3.08;;;11.10;99.90;;;;;;4977481;28;20170;-83
2023/05/29 05:32:57;;;;;;;14.45;3.53;;;11.20;99.90;;;;;;4935885;28;20043;-83
2023/05/29 05:35:23;;;;;;;13.05;3.17;;;11.20;99.90;;;;;;4956193;28;20122;-83
2023/05/29 05:37:49;;;;;;;18.85;3.33;;;11.30;99.90;;;;;;4954825;28;20061;-82
2023/05/29 05:40:15;;;;;;;15.32;3.22;;;11.40;99.90;;;;;;4955124;28;20046;-83
2023/05/29 05:42:40;;;;;;;16.25;3.45;;;11.30;99.90;;;;;;4976388;28;20144;-83
2023/05/29 05:45:07;;;;;;;14.80;3.70;;;11.40;99.90;;;;;;4972454;28;20581;-82
2023/05/29 05:47:33;;;;;;;12.50;4.03;;;11.30;99.90;;;;;;4959494;28;20049;-82
2023/05/29 05:49:59;;;;;;;15.27;3.95;;;11.50;99.90;;;;;;4977469;28;20046;-83
2023/05/29 05:52:31;;;;;;;14.90;3.20;;;11.40;99.90;;;;;;4973513;28;20113;-82
2023/05/29 05:54:56;;;;;;;10.02;2.92;;;11.70;99.90;;;;;;4965147;28;20042;-82
2023/05/29 05:57:22;;;;;;;15.07;3.25;;;11.90;99.90;;;;;;4962957;28;20061;-82
2023/05/29 05:59:48;;;;;;;13.32;2.95;;;11.90;99.90;;;;;;4974960;28;20552;-83
2023/05/29 06:02:13;;;;;;;14.73;3.53;;;12.10;99.90;;;;;;4973050;28;20398;-82
2023/05/29 06:04:39;;;;;;;12.82;3.60;;;12.00;99.90;;;;;;4977815;28;20042;-83
2023/05/29 06:07:08;;;;;;;17.50;3.58;;;12.00;99.90;;;;;;4973646;28;20046;-82
2023/05/29 06:09:34;;;;;;;13.55;3.40;;;11.70;99.90;;;;;;4980148;28;20290;-82
2023/05/29 06:12:00;;;;;;;15.38;3.85;;;11.80;99.90;;;;;;4963133;28;20517;-83
2023/05/29 06:14:26;;;;;;;12.75;3.42;;;11.70;99.90;;;;;;4981417;28;20046;-83
2023/05/29 06:16:52;;;;;;;14.77;3.17;;;11.60;99.90;;;;;;4978247;28;20042;-83
2023/05/29 06:19:17;;;;;;;14.02;3.30;;;11.50;99.90;;;;;;4971051;28;20054;-82
2023/05/29 06:21:43;;;;;;;14.23;3.60;;;11.50;99.90;;;;;;4956453;28;20235;-83
2023/05/29 06:24:12;;;;;;;18.23;3.38;;;11.50;99.90;;;;;;4957344;28;20094;-82
2023/05/29 06:26:38;;;;;;;11.23;3.35;;;11.70;99.90;;;;;;4964918;28;20398;-82
2023/05/29 06:29:06;;;;;;;11.77;3.15;;;11.80;99.90;;;;;;4961126;28;20050;-83
2023/05/29 06:31:32;;;;;;;13.68;3.30;;;11.80;99.90;;;;;;4963617;28;20217;-83
2023/05/29 06:33:58;;;;;;;16.67;3.58;;;11.60;99.90;;;;;;4959387;28;20543;-83
2023/05/29 06:36:24;;;;;;;17.27;3.50;;;11.70;99.90;;;;;;4975428;28;20299;-83
2023/05/29 06:38:53;;;;;;;16.23;3.80;;;11.70;99.90;;;;;;4969923;28;20287;-83
2023/05/29 06:41:18;;;;;;;16.13;3.50;;;11.60;99.90;;;;;;4959776;28;20039;-83
2023/05/29 06:43:47;;;;;;;16.40;3.53;;;11.90;99.90;;;;;;4976374;28;20042;-82
2023/05/29 06:46:12;;;;;;;17.92;4.20;;;11.80;99.90;;;;;;4959848;28;20452;-83
2023/05/29 06:48:38;;;;;;;12.90;3.58;;;12.00;99.90;;;;;;4962542;28;20046;-82
2023/05/29 06:51:11;;;;;;;20.17;4.45;;;12.00;99.90;;;;;;4958926;28;20073;-82
2023/05/29 06:53:37;;;;;;;14.07;3.38;;;11.90;99.90;;;;;;4961698;28;20052;-83
2023/05/29 06:56:03;;;;;;;14.70;3.97;;;12.30;99.90;;;;;;4977120;28;20084;-82
2023/05/29 06:58:30;;;;;;;14.27;3.47;;;12.20;99.90;;;;;;4962837;28;20053;-83
2023/05/29 07:01:00;;;;;;;18.98;3.80;;;12.10;99.90;;;;;;4948167;28;20537;-83
2023/05/29 07:03:26;;;;;;;23.35;4.13;;;12.30;99.90;;;;;;4956193;28;20263;-82
2023/05/29 07:05:55;;;;;;;17.85;3.92;;;12.30;99.90;;;;;;4956687;28;20073;-82
2023/05/29 07:08:21;;;;;;;15.30;4.20;;;12.70;99.90;;;;;;4960275;28;20046;-82
2023/05/29 07:10:48;;;;;;;13.77;4.00;;;12.90;99.90;;;;;;4956981;28;20050;-82
2023/05/29 07:13:16;;;;;;;14.95;4.10;;;13.10;99.90;;;;;;4976547;28;20065;-83
2023/05/29 07:15:42;;;;;;;12.00;3.78;;;13.20;99.90;;;;;;4997012;28;20037;-82
2023/05/29 07:18:07;;;;;;;14.65;4.35;;;12.70;99.90;;;;;;5011804;28;20436;-82
2023/05/29 07:20:33;;;;;;;13.38;3.55;;;12.70;99.90;;;;;;5011957;28;20041;-82
2023/05/29 07:23:03;;;;;;;14.52;3.75;;;12.70;1.00;;;;;;4990287;28;20045;-82
2023/05/29 07:25:32;;;;;;;17.20;3.83;;;13.20;1.00;;;;;;4992960;28;20033;-82
2023/05/29 07:27:58;;;;;;;19.30;3.70;;;13.10;99.90;;;;;;4994757;28;20691;-83
2023/05/29 07:30:24;;;;;;;16.13;4.35;;;13.00;1.00;;;;;;5008483;28;20053;-82
2023/05/29 07:32:49;;;;;;;14.73;3.58;;;12.90;99.90;;;;;;4989498;28;20034;-83
2023/05/29 07:35:15;;;;;;;18.05;4.38;;;12.90;99.90;;;;;;4998259;28;20048;-83
2023/05/29 07:37:41;;;;;;;13.25;3.50;;;12.90;85.80;;;;;;4995363;28;20037;-83
2023/05/29 07:40:07;;;;;;;18.67;4.10;;;12.90;99.90;;;;;;4993806;28;20053;-82
2023/05/29 07:42:36;;;;;;;15.73;4.07;;;13.20;99.90;;;;;;4993547;28;20038;-83
2023/05/29 07:45:01;;;;;;;12.68;4.00;;;13.20;99.90;;;;;;5013614;28;20081;-82
2023/05/29 07:47:27;;;;;;;16.00;4.97;;;12.80;99.90;;;;;;5011465;28;20546;-82
2023/05/29 07:49:53;;;;;;;19.58;3.97;;;12.90;99.90;;;;;;4980103;28;20033;-83
2023/05/29 07:52:18;;;;;;;15.30;3.60;;;13.20;99.90;;;;;;4991500;28;20049;-84
2023/05/29 07:54:44;;;;;;;13.50;3.92;;;13.20;99.90;;;;;;4979145;28;20048;-83
2023/05/29 07:57:10;;;;;;;19.33;3.50;;;13.40;99.90;;;;;;4997549;28;20048;-82
2023/05/29 07:59:40;;;;;;;12.07;3.35;;;13.10;99.90;;;;;;5010064;28;20435;-83
2023/05/29 08:02:06;;;;;;;18.08;4.13;;;13.20;1.00;;;;;;4994071;28;20056;-83
2023/05/29 08:04:32;;;;;;;16.30;3.95;;;13.30;99.90;;;;;;4993449;28;20128;-82
2023/05/29 08:07:03;;;;;;;19.38;3.58;;;13.40;99.90;;;;;;4993068;28;20065;-82
2023/05/29 08:09:30;;;;;;;15.55;3.63;;;13.70;99.90;;;;;;4992539;28;20064;-83
2023/05/29 08:11:55;;;;;;;12.25;3.20;;;13.80;99.90;;;;;;4979658;28;20120;-82
2023/05/29 08:14:21;;;;;;;17.98;4.30;;;13.80;1.00;;;;;;4956527;28;20378;-82
2023/05/29 08:16:47;;;;;;;20.55;4.63;;;14.30;99.90;;;;;;4975789;28;20046;-82
2023/05/29 08:19:13;;;;;;;20.70;3.50;;;14.30;99.90;;;;;;4976524;28;20049;-83
2023/05/29 08:21:41;;;;;;;14.13;3.72;;;13.90;5.70;;;;;;4943345;28;20367;-83
2023/05/29 08:24:07;;;;;;;19.55;3.95;;;13.60;27.60;;;;;;4974656;28;20502;-82
2023/05/29 08:26:36;;;;;;;21.60;3.70;;;13.90;16.70;;;;;;4942370;28;20053;-82
2023/05/29 08:29:01;;;;;;;17.80;3.33;;;14.50;1.00;;;;;;4943676;28;20053;-83
2023/05/29 08:31:27;;;;;;;17.48;4.10;;;14.00;9.00;;;;;;4944335;28;20272;-83
2023/05/29 08:33:53;;;;;;;21.40;3.90;;;13.90;99.90;;;;;;4960062;28;20038;-83
2023/05/29 08:36:21;;;;;;;15.27;3.78;;;14.10;99.90;;;;;;4956774;28;20045;-83
2023/05/29 08:38:50;;;;;;;14.93;3.50;;;14.40;1.00;;;;;;4972555;28;20050;-82
2023/05/29 08:41:34;;;;;;;16.15;3.72;;;14.40;99.90;;;;;;4955368;28;20042;-82
2023/05/29 08:44:05;;;;;;;19.05;4.05;;;14.20;99.90;;;;;;4971062;28;20034;-82
2023/05/29 08:46:32;;;;;;;15.38;3.47;;;14.20;99.90;;;;;;4960005;28;20046;-82
2023/05/29 08:48:58;;;;;;;14.18;4.15;;;13.90;7.80;;;;;;4958011;28;20135;-83
2023/05/29 08:51:31;;;;;;;16.15;4.18;;;13.80;1.00;;;;;;4956828;28;20807;-83
2023/05/29 08:53:57;;;;;;;15.43;4.07;;;13.70;99.90;;;;;;4943692;28;20133;-83
2023/05/29 08:56:23;;;;;;;16.40;3.47;;;14.00;1.00;;;;;;4944810;28;20046;-83
2023/05/29 08:58:50;;;;;;;14.02;3.72;;;13.90;99.90;;;;;;4974793;28;20077;-83
2023/05/29 09:01:17;;;;;;;18.42;3.85;;;13.80;99.90;;;;;;4955628;28;20039;-83
2023/05/29 09:03:43;;;;;;;16.77;3.53;;;14.20;99.90;;;;;;4956489;28;20133;-83
2023/05/29 09:06:09;;;;;;;20.63;4.28;;;14.20;99.90;;;;;;4969115;28;20037;-83
2023/05/29 09:08:38;;;;;;;12.00;3.38;;;14.60;99.90;;;;;;4956949;28;20043;-82
2023/05/29 09:11:07;;;;;;;14.90;3.55;;;14.80;99.90;;;;;;4937895;28;20050;-83
2023/05/29 09:13:32;;;;;;;15.07;4.13;;;14.90;99.90;;;;;;4959311;28;20058;-83
2023/05/29 09:15:59;;;;;;;17.40;3.50;;;14.40;1.00;;;;;;4943541;28;20065;-83
2023/05/29 09:18:31;;;;;;;16.13;3.80;;;14.10;99.90;;;;;;4975003;28;20494;-83
2023/05/29 09:20:57;;;;;;;17.95;4.47;;;14.40;99.90;;;;;;4974975;28;20451;-82
2023/05/29 09:23:25;;;;;;;17.13;4.03;;;14.50;1.00;;;;;;4957575;28;20042;-82
2023/05/29 09:25:53;;;;;;;17.55;4.20;;;14.60;99.90;;;;;;4974440;28;20106;-82
2023/05/29 09:28:20;;;;;;;18.58;4.45;;;14.80;99.90;;;;;;4958627;28;20038;-82
2023/05/29 09:30:47;;;;;;;15.57;3.85;;;14.70;99.90;;;;;;4981597;28;20186;-83
2023/05/29 09:33:14;;;;;;;17.15;4.05;;;14.60;99.90;;;;;;4977357;28;20042;-82
2023/05/29 09:35:45;;;;;;;17.08;4.13;;;14.70;99.00;;;;;;4957626;28;20053;-82
2023/05/29 09:38:13;;;;;;;15.48;3.40;;;14.70;34.10;;;;;;4962973;28;20572;-82
2023/05/29 09:40:40;;;;;;;15.57;3.70;;;15.40;99.90;;;;;;4981282;28;20038;-82
2023/05/29 09:43:13;;;;;;;13.02;3.60;;;14.70;99.90;;;;;;4947635;28;20085;-82
2023/05/29 09:45:41;;;;;;;15.20;4.00;;;14.60;99.90;;;;;;4978603;28;20045;-83
2023/05/29 09:48:34;;;;;;;16.70;4.50;;;14.50;99.90;;;;;;4962341;28;20070;-83
2023/05/29 09:51:02;;;;;;;14.88;3.47;;;14.80;58.50;;;;;;4975865;28;20402;-82
2023/05/29 09:53:28;;;;;;;18.92;3.90;;;15.10;1.00;;;;;;4946145;28;20125;-82
2023/05/29 09:56:00;;;;;;;18.30;3.70;;;15.40;99.90;;;;;;4961100;28;20430;-82
2023/05/29 09:58:26;;;;;;;17.88;3.78;;;15.40;99.90;;;;;;4959366;28;20142;-82
2023/05/29 10:00:53;;;;;;;16.13;4.15;;;15.80;99.90;;;;;;4945867;28;20121;-82
2023/05/29 10:03:21;;;;;;;15.10;3.90;;;15.70;1.00;;;;;;4941918;28;20054;-83
2023/05/29 10:05:52;;;;;;;15.05;4.15;;;15.70;1.00;;;;;;4956564;28;20141;-82
2023/05/29 10:08:20;;;;;;;13.60;4.00;;;15.50;99.90;;;;;;4952664;28;20039;-84
2023/05/29 10:10:52;;;;;;;14.20;3.63;;;15.50;1.00;;;;;;4955424;28;20039;-82
2023/05/29 10:13:18;;;;;;;14.77;3.78;;;16.40;99.90;;;;;;4997161;28;20436;-83
2023/05/29 10:15:50;;;;;;;13.57;3.85;;;16.20;99.90;;;;;;5014907;28;20046;-83
2023/05/29 10:18:42;;;;;;;12.82;3.50;;;15.50;99.90;;;;;;4979984;28;20048;-82
2023/05/29 10:21:11;;;;;;;15.57;3.35;;;15.80;99.90;;;;;;4975962;28;20057;-82
2023/05/29 10:23:45;;;;;;;14.75;3.50;;;16.40;1.00;;;;;;4980175;28;20041;-83
2023/05/29 10:26:28;;;;;;;10.37;3.33;;;15.70;99.90;;;;;;5011474;28;20033;-83
2023/05/29 10:29:08;;;;;;;12.00;4.07;;;16.40;99.90;;;;;;5010822;28;20292;-82
2023/05/29 10:32:02;;;;;;;10.50;2.90;;;15.80;1.00;;;;;;5014098;28;20042;-83
2023/05/29 10:34:47;;;;;;;9.20;3.35;;;16.20;99.90;;;;;;5010249;28;20508;-83
2023/05/29 10:37:48;;;;;;;12.60;3.25;;;16.00;99.90;;;;;;4977057;28;20045;-82
2023/05/29 10:40:14;;;;;;;14.70;3.42;;;15.70;99.90;;;;;;5011287;28;20116;-82
2023/05/29 10:42:42;;;;;;;16.85;4.25;;;15.60;1.00;;;;;;4979442;28;20924;-82
2023/05/29 10:45:08;;;;;;;18.58;4.30;;;16.00;99.90;;;;;;4979164;28;20040;-83
2023/05/29 10:47:34;;;;;;;15.85;3.45;;;15.30;99.90;;;;;;4997425;28;20044;-83
2023/05/29 10:50:01;;;;;;;12.02;3.42;;;15.30;99.90;;;;;;4990641;28;20038;-83
2023/05/29 10:52:34;;;;;;;9.23;3.55;;;15.70;99.90;;;;;;4973335;28;20052;-83
2023/05/29 10:55:03;;;;;;;13.88;3.50;;;15.50;99.90;;;;;;4996375;28;20477;-82
2023/05/29 10:57:30;;;;;;;16.00;3.22;;;15.80;99.90;;;;;;5013510;28;20049;-82
2023/05/29 11:00:08;;;;;;;16.83;3.40;;;16.20;99.90;;;;;;5013951;28;20046;-82
2023/05/29 11:02:38;;;;;;;15.55;3.63;;;16.70;98.50;;;;;;4994328;28;20037;-82
2023/05/29 11:05:20;;;;;;;17.27;3.60;;;17.20;45.10;;;;;;4994488;28;20072;-83
2023/05/29 11:07:57;;;;;;;18.17;3.50;;;16.70;99.90;;;;;;4973745;28;20220;-83
2023/05/29 11:10:44;;;;;;;14.98;3.38;;;16.80;99.90;;;;;;4996301;28;20065;-83
2023/05/29 11:13:10;;;;;;;10.57;3.53;;;16.80;99.90;;;;;;4995331;28;20096;-83
2023/05/29 11:15:38;;;;;;;11.75;3.10;;;16.50;99.90;;;;;;5007884;28;20076;-83
2023/05/29 11:18:12;;;;;;;13.05;3.80;;;15.90;99.90;;;;;;5011597;28;20060;-83
2023/05/29 11:21:00;;;;;;;14.93;3.20;;;16.00;48.40;;;;;;4978778;28;20544;-82
2023/05/29 11:23:31;;;;;;;17.35;3.85;;;16.50;99.90;;;;;;4976911;28;20754;-82
2023/05/29 11:25:59;;;;;;;15.88;3.33;;;16.20;99.90;;;;;;4995707;28;20041;-83
2023/05/29 11:28:27;;;;;;;14.52;3.35;;;15.50;1.00;;;;;;5011626;28;20069;-83
2023/05/29 11:30:54;;;;;;;12.73;3.80;;;14.90;1.00;;;;;;4996932;28;20033;-83
2023/05/29 11:33:25;;;;;;;14.25;4.07;;;15.10;49.40;;;;;;4990525;28;20161;-83
2023/05/29 11:35:56;;;;;;;14.43;3.70;;;15.60;76.90;;;;;;4992568;28;20336;-82
2023/05/29 11:38:22;;;;;;;19.35;3.58;;;14.90;99.90;;;;;;4993110;28;20045;-83
2023/05/29 11:40:48;;;;;;;14.52;3.10;;;14.70;26.70;;;;;;4989327;28;20049;-82
2023/05/29 11:43:14;;;;;;;14.38;3.78;;;15.30;99.90;;;;;;4993932;28;20041;-82
2023/05/29 11:45:40;;;;;;;10.57;3.13;;;15.20;94.70;;;;;;4992382;28;20045;-82
2023/05/29 11:48:05;;;;;;;14.93;3.35;;;16.30;99.90;;;;;;4994167;28;20045;-82
2023/05/29 11:50:32;;;;;;;14.48;3.13;;;16.10;99.90;;;;;;4992584;28;20210;-82
2023/05/29 11:52:59;;;;;;;17.67;3.70;;;15.40;97.40;;;;;;5007873;28;20156;-82
2023/05/29 11:55:26;;;;;;;19.10;3.20;;;15.80;99.90;;;;;;4978020;28;20858;-82
2023/05/29 11:58:10;;;;;;;11.68;3.25;;;16.60;99.90;;;;;;5010326;28;20405;-82
2023/05/29 12:00:37;;;;;;;19.45;3.65;;;15.70;1.00;;;;;;4995050;28;20053;-83
2023/05/29 12:03:07;;;;;;;15.77;3.28;;;15.80;99.90;;;;;;5010612;28;20037;-83
2023/05/29 12:05:45;;;;;;;12.70;3.53;;;16.10;23.40;;;;;;4992080;28;20550;-82
2023/05/29 12:08:11;;;;;;;11.57;3.30;;;16.60;95.90;;;;;;5008431;28;20505;-82
2023/05/29 12:10:37;;;;;;;12.95;3.55;;;16.60;69.40;;;;;;4975995;28;20042;-82
2023/05/29 12:13:03;;;;;;;10.50;2.55;;;17.20;1.00;;;;;;4993630;28;20065;-82
2023/05/29 12:15:29;;;;;;;9.18;2.72;;;16.40;99.90;;;;;;4994745;28;20053;-82
2023/05/29 12:17:56;;;;;;;13.60;3.05;;;16.60;99.90;;;;;;5010948;28;20042;-82
2023/05/29 12:20:23;;;;;;;13.32;3.55;;;16.60;99.90;;;;;;5008818;28;20042;-83
2023/05/29 12:22:49;;;;;;;14.32;3.40;;;16.40;99.90;;;;;;4990479;28;20048;-82
2023/05/29 12:25:20;;;;;;;22.90;4.28;;;16.90;99.90;;;;;;5003096;28;20350;-83
2023/05/29 12:27:47;;;;;;;10.73;2.60;;;17.90;99.90;;;;;;5012313;28;20041;-83
2023/05/29 12:30:15;;;;;;;12.60;3.08;;;17.50;99.90;;;;;;4997881;28;20478;-83
2023/05/29 12:32:46;;;;;;;9.68;3.15;;;17.40;99.90;;;;;;5012015;28;20034;-84
2023/05/29 12:35:17;;;;;;;14.80;3.97;;;17.00;99.90;;;;;;4990230;28;20132;-82
2023/05/29 12:37:47;;;;;;;12.05;3.15;;;17.60;99.90;;;;;;4994351;28;20033;-82
2023/05/29 12:40:18;;;;;;;15.20;3.50;;;16.70;1.00;;;;;;4996780;28;20428;-82
2023/05/29 12:42:44;;;;;;;13.93;3.20;;;16.60;1.00;;;;;;4994604;28;20607;-82
2023/05/29 12:45:11;;;;;;;14.02;3.17;;;16.70;99.90;;;;;;4997674;28;20375;-83
2023/05/29 12:47:45;;;;;;;14.70;3.38;;;17.10;99.90;;;;;;4996796;28;20046;-82